Quetta Weather



Quetta's Current Weather

Temprature 11.524o few clouds

few clouds

Rain: 0 %

Min Temprature11.524o
Max Temprature11.524o
Humidity41
Wind Speed2.96 m/h
Sun Rise07:04:26
Sun Set18:26:29
Current Time: 23-Feb-2019 16:44:55
Lat/Lon: 30.19, 67.02




Quetta's Geo Location




Quetta's Weather Forecast

Time Overall Temp Min Temp Max Temp Humidity Wind Speed Rain
23-Feb-2019 (Sat)
17:00:00 few clouds 10.450 10.450 11.524 41 2.96 m/h 0 %
20:00:00 scattered clouds 4.080 4.080 4.884 60 1.52 m/h 0 %
23:00:00 clear sky -0.450 -0.450 0.090 67 1.32 m/h 0 %
24-Feb-2019 (Sun)
02:00:00 clear sky -4.010 -4.010 -3.740 60 1.36 m/h 0 %
05:00:00 clear sky -4.833 -4.833 -4.833 59 1.51 m/h 0 %
08:00:00 clear sky -3.922 -3.922 -3.922 58 1.21 m/h 0 %
11:00:00 clear sky 10.424 10.424 10.424 44 1.96 m/h 0 %
14:00:00 broken clouds 10.106 10.106 10.106 39 3.22 m/h 0 %
17:00:00 clear sky 9.321 9.321 9.321 38 3.35 m/h 0 %
20:00:00 clear sky 4.818 4.818 4.818 54 2.56 m/h 0 %
23:00:00 clear sky 3.111 3.111 3.111 67 2.86 m/h 0 %
25-Feb-2019 (Mon)
02:00:00 clear sky 2.405 2.405 2.405 62 2.82 m/h 0 %
05:00:00 clear sky 0.577 0.577 0.577 60 2.51 m/h 0 %
08:00:00 clear sky 1.245 1.245 1.245 61 2.32 m/h 0 %
11:00:00 scattered clouds 8.422 8.422 8.422 42 2.96 m/h 0 %
14:00:00 clear sky 10.073 10.073 10.073 35 3.12 m/h 0 %
17:00:00 clear sky 8.812 8.812 8.812 34 3.16 m/h 0 %
20:00:00 broken clouds 4.623 4.623 4.623 57 2.81 m/h 0 %
23:00:00 clear sky 2.642 2.642 2.642 69 2.91 m/h 0 %
26-Feb-2019 (Tue)
02:00:00 clear sky 1.126 1.126 1.126 69 2.91 m/h 0 %
05:00:00 clear sky -0.378 -0.378 -0.378 64 2.56 m/h 0 %
08:00:00 clear sky -1.343 -1.343 -1.343 57 1.87 m/h 0 %
11:00:00 clear sky 6.567 6.567 6.567 39 2.22 m/h 0 %
14:00:00 clear sky 8.396 8.396 8.396 35 3.31 m/h 0 %
17:00:00 clear sky 6.914 6.914 6.914 38 3.61 m/h 0 %
20:00:00 clear sky 2.586 2.586 2.586 59 3.02 m/h 0 %
23:00:00 clear sky 0.098 0.098 0.098 66 2.67 m/h 0 %
27-Feb-2019 (Wed)
02:00:00 clear sky -0.894 -0.894 -0.894 60 2.66 m/h 0 %
05:00:00 clear sky -1.831 -1.831 -1.831 54 2.3 m/h 0 %
08:00:00 clear sky -1.910 -1.910 -1.910 50 1.47 m/h 0 %
11:00:00 clear sky 9.495 9.495 9.495 36 1.31 m/h 0 %
14:00:00 clear sky 12.836 12.836 12.836 31 1.5 m/h 0 %
17:00:00 broken clouds 11.998 11.998 11.998 30 1.61 m/h 0 %
20:00:00 light rain 7.017 7.017 7.017 51 1.07 m/h 41 %
23:00:00 light rain 4.391 4.391 4.391 72 0.97 m/h 206 %
28-Feb-2019 (Thu)
02:00:00 moderate rain 2.391 2.391 2.391 92 1.06 m/h 328 %
05:00:00 moderate rain 1.213 1.213 1.213 97 1.06 m/h 440 %
08:00:00 light rain 1.015 1.015 1.015 98 1.06 m/h 82 %
11:00:00 light rain 0.772 0.772 0.772 100 0.06 m/h 76 %
14:00:00 light rain 1.004 1.004 1.004 100 0.07 m/h 39 %


Quetta's Tourist Spots

Historical Places in Quetta

Famous Cities (60)